createdAt,value
2024-05-09T00:01:01.606Z,22.6
2024-05-09T00:02:10.821Z,22.6
2024-05-09T00:03:20.096Z,22.6
2024-05-09T00:04:29.114Z,22.5
2024-05-09T00:05:38.286Z,22.5
2024-05-09T00:07:56.607Z,22.5
2024-05-09T00:10:14.031Z,22.6
2024-05-09T00:11:22.195Z,22.5
2024-05-09T00:12:30.378Z,22.5
2024-05-09T00:13:39.533Z,22.5
2024-05-09T00:14:48.789Z,22.5
2024-05-09T00:15:58.052Z,22.5
2024-05-09T00:17:07.114Z,22.5
2024-05-09T00:18:16.320Z,22.5
2024-05-09T00:19:25.581Z,22.5
2024-05-09T00:20:34.642Z,22.5
2024-05-09T00:21:45.160Z,22.5
2024-05-09T00:22:52.091Z,22.5
2024-05-09T00:25:09.380Z,22.5
2024-05-09T00:26:18.536Z,22.5
2024-05-09T00:27:27.668Z,22.5
2024-05-09T00:28:36.839Z,22.5
2024-05-09T00:29:46.012Z,22.5
2024-05-09T00:30:55.206Z,22.5
2024-05-09T00:32:04.397Z,22.5
2024-05-09T00:33:13.573Z,22.5
2024-05-09T00:34:22.700Z,22.5
2024-05-09T00:35:31.981Z,22.5
2024-05-09T00:36:41.060Z,22.5
2024-05-09T00:37:50.235Z,22.5
2024-05-09T00:38:58.419Z,22.5
2024-05-09T00:40:07.594Z,22.5
2024-05-09T00:42:26.051Z,22.5
2024-05-09T00:43:34.154Z,22.5
2024-05-09T00:44:42.325Z,22.5
2024-05-09T00:45:51.493Z,22.5
2024-05-09T00:47:00.670Z,22.4
2024-05-09T00:48:09.894Z,22.4
2024-05-09T00:49:19.118Z,22.4
2024-05-09T00:50:28.181Z,22.4
2024-05-09T00:51:37.367Z,22.4
2024-05-09T00:52:46.567Z,22.4
2024-05-09T00:53:55.742Z,22.4
2024-05-09T00:55:03.934Z,22.4
2024-05-09T00:56:12.101Z,22.4
2024-05-09T00:57:21.273Z,22.4
2024-05-09T01:00:48.792Z,22.4
2024-05-09T01:01:57.972Z,22.4
2024-05-09T01:03:07.222Z,22.4
2024-05-09T01:04:16.333Z,22.4
2024-05-09T01:05:25.482Z,22.4
2024-05-09T01:06:34.658Z,22.4
2024-05-09T01:07:43.840Z,22.4
2024-05-09T01:08:52.042Z,22.4
2024-05-09T01:10:00.232Z,22.4
2024-05-09T01:11:09.483Z,22.4
2024-05-09T01:12:18.653Z,22.4
2024-05-09T01:13:27.760Z,22.4
2024-05-09T01:14:36.946Z,22.4
2024-05-09T01:16:55.256Z,22.4
2024-05-09T01:18:04.439Z,22.4
2024-05-09T01:19:13.616Z,22.4
2024-05-09T01:20:22.790Z,22.4
2024-05-09T01:21:31.968Z,22.4
2024-05-09T01:22:41.155Z,22.4
2024-05-09T01:23:50.316Z,22.3
2024-05-09T01:24:58.514Z,22.4
2024-05-09T01:26:07.676Z,22.3
2024-05-09T01:27:16.853Z,22.3
2024-05-09T01:28:26.021Z,22.3
2024-05-09T01:29:35.237Z,22.3
2024-05-09T01:30:44.370Z,22.3
2024-05-09T01:31:53.553Z,22.3
2024-05-09T01:33:01.736Z,22.3
2024-05-09T01:34:09.941Z,22.3
2024-05-09T01:35:19.110Z,22.3
2024-05-09T01:36:28.965Z,22.3
2024-05-09T01:37:37.473Z,22.3
2024-05-09T01:39:55.807Z,22.3
2024-05-09T01:42:14.142Z,22.3
2024-05-09T01:43:23.451Z,22.3
2024-05-09T01:44:32.487Z,22.3
2024-05-09T01:45:41.729Z,22.3
2024-05-09T01:46:49.865Z,22.3
2024-05-09T01:47:58.059Z,22.3
2024-05-09T01:49:07.286Z,22.3
2024-05-09T01:51:25.581Z,22.3
2024-05-09T01:52:34.748Z,22.3
2024-05-09T01:53:43.921Z,22.3
2024-05-09T01:54:53.121Z,22.3
2024-05-09T01:56:02.313Z,22.3
2024-05-09T01:57:11.460Z,22.3
2024-05-09T01:58:20.692Z,22.3
2024-05-09T01:59:29.789Z,22.3
2024-05-09T02:00:38.987Z,22.3
2024-05-09T02:01:48.152Z,22.3
2024-05-09T02:02:56.386Z,22.3
2024-05-09T02:04:05.505Z,22.3
2024-05-09T02:05:14.683Z,22.3
2024-05-09T02:06:23.847Z,22.3
2024-05-09T02:08:42.202Z,22.3
2024-05-09T02:09:50.402Z,22.3
2024-05-09T02:10:58.585Z,22.3
2024-05-09T02:12:07.831Z,22.3
2024-05-09T02:13:17.221Z,22.3
2024-05-09T02:14:26.104Z,22.3
2024-05-09T02:15:35.272Z,22.2
2024-05-09T02:16:44.450Z,22.3
2024-05-09T02:17:53.682Z,22.2
2024-05-09T02:19:02.804Z,22.2
2024-05-09T02:20:11.968Z,22.2
2024-05-09T02:21:20.164Z,22.2
2024-05-09T02:22:28.371Z,22.2
2024-05-09T02:23:37.542Z,22.2
2024-05-09T02:24:46.708Z,22.2
2024-05-09T02:27:05.067Z,22.2
2024-05-09T02:28:14.258Z,22.2
2024-05-09T02:29:23.448Z,22.2
2024-05-09T02:30:32.593Z,22.2
2024-05-09T02:31:42.067Z,22.2
2024-05-09T02:32:50.925Z,22.2
2024-05-09T02:34:00.113Z,22.2
2024-05-09T02:35:09.277Z,22.2
2024-05-09T02:36:18.454Z,22.2
2024-05-09T02:37:26.764Z,22.2
2024-05-09T02:38:35.870Z,22.2
2024-05-09T02:39:44.987Z,22.2
2024-05-09T02:40:54.172Z,22.2
2024-05-09T02:43:12.493Z,22.2
2024-05-09T02:44:20.705Z,22.2
2024-05-09T02:45:28.891Z,22.2
2024-05-09T02:46:38.065Z,22.2
2024-05-09T02:47:47.249Z,22.2
2024-05-09T02:48:56.417Z,22.2
2024-05-09T02:50:05.591Z,22.2
2024-05-09T02:51:14.761Z,22.2
2024-05-09T02:52:23.935Z,22.2
2024-05-09T02:53:33.116Z,22.2
2024-05-09T02:54:42.284Z,22.2
2024-05-09T02:55:50.481Z,22.2
2024-05-09T02:56:58.674Z,22.2
2024-05-09T02:58:07.855Z,22.2
2024-05-09T03:00:26.178Z,22.2
2024-05-09T03:01:35.361Z,22.2
2024-05-09T03:02:44.532Z,22.2
2024-05-09T03:03:53.716Z,22.2
2024-05-09T03:05:02.912Z,22.2
2024-05-09T03:06:12.064Z,22.2
2024-05-09T03:07:21.245Z,22.1
2024-05-09T03:08:30.408Z,22.1
2024-05-09T03:09:39.582Z,22.2
2024-05-09T03:10:48.761Z,22.1
2024-05-09T03:11:56.949Z,22.1
2024-05-09T03:13:06.121Z,22.1
2024-05-09T03:14:15.301Z,22.1
2024-05-09T03:15:24.458Z,22.1
2024-05-09T03:17:42.819Z,22.1
2024-05-09T03:18:51.008Z,22.1
2024-05-09T03:19:59.202Z,22.1
2024-05-09T03:21:08.387Z,22.1
2024-05-09T03:22:17.550Z,22.1
2024-05-09T03:23:26.729Z,22.1
2024-05-09T03:24:35.985Z,22.1
2024-05-09T03:25:45.069Z,22.1
2024-05-09T03:26:54.241Z,22.1
2024-05-09T03:28:03.427Z,22.1
2024-05-09T03:29:12.609Z,22.1
2024-05-09T03:30:20.793Z,22.1
2024-05-09T03:31:29.003Z,22.1
2024-05-09T03:32:38.174Z,22.1
2024-05-09T03:34:56.497Z,22.1
2024-05-09T03:36:05.676Z,22.1
2024-05-09T03:37:14.844Z,22.1
2024-05-09T03:38:24.024Z,22.1
2024-05-09T03:39:33.188Z,22.1
2024-05-09T03:40:42.430Z,22.1
2024-05-09T03:41:51.547Z,22.1
2024-05-09T03:43:00.711Z,22.1
2024-05-09T03:44:09.892Z,22.1
2024-05-09T03:45:19.070Z,22.1
2024-05-09T03:46:27.251Z,22.1
2024-05-09T03:47:36.467Z,22.1
2024-05-09T03:48:45.610Z,22.1
2024-05-09T03:49:54.787Z,22.1
2024-05-09T03:52:13.122Z,22.1
2024-05-09T03:53:21.348Z,22.1
2024-05-09T03:54:29.530Z,22.1
2024-05-09T03:55:38.684Z,22.1
2024-05-09T03:56:47.862Z,22.1
2024-05-09T03:57:57.068Z,22.1
2024-05-09T03:59:06.264Z,22.1
2024-05-09T04:00:15.381Z,22.1
2024-05-09T04:01:24.629Z,22.1
2024-05-09T04:02:35.136Z,22.1
2024-05-09T04:03:42.899Z,22.1
2024-05-09T04:04:51.095Z,22.1
2024-05-09T04:05:59.293Z,22.1
2024-05-09T04:07:08.466Z,22.1
2024-05-09T04:09:26.893Z,22.1
2024-05-09T04:10:36.010Z,22.1
2024-05-09T04:11:45.159Z,22.1
2024-05-09T04:12:54.340Z,22.1
2024-05-09T04:14:03.547Z,22.1
2024-05-09T04:15:12.682Z,22.1
2024-05-09T04:16:21.861Z,22.1
2024-05-09T04:17:31.033Z,22.1
2024-05-09T04:18:40.203Z,22.1
2024-05-09T04:19:49.383Z,22.1
2024-05-09T04:22:06.737Z,22.1
2024-05-09T04:23:15.013Z,22.1
2024-05-09T04:24:23.134Z,22.1
2024-05-09T04:26:41.494Z,22.1
2024-05-09T04:27:50.663Z,22.1
2024-05-09T04:28:59.824Z,22.1
2024-05-09T04:30:08.988Z,22.1
2024-05-09T04:31:18.199Z,22.1
2024-05-09T04:32:27.438Z,22.1
2024-05-09T04:33:36.528Z,22.1
2024-05-09T04:35:54.889Z,22.2
2024-05-09T04:37:04.044Z,22.2
2024-05-09T04:38:13.216Z,22.2
2024-05-09T04:39:21.405Z,22.2
2024-05-09T04:40:31.029Z,22.2
2024-05-09T04:41:39.771Z,22.2
2024-05-09T04:43:58.094Z,22.2
2024-05-09T04:45:07.272Z,22.2
2024-05-09T04:46:16.436Z,22.2
2024-05-09T04:47:25.607Z,22.2
2024-05-09T04:48:34.799Z,22.2
2024-05-09T04:49:43.997Z,22.2
2024-05-09T04:50:53.141Z,22.2
2024-05-09T04:52:02.313Z,22.2
2024-05-09T04:53:11.627Z,22.2
2024-05-09T04:54:19.685Z,22.2
2024-05-09T04:55:28.839Z,22.2
2024-05-09T04:56:38.025Z,22.2
2024-05-09T04:57:47.234Z,22.2
2024-05-09T04:58:56.418Z,22.2
2024-05-09T05:00:04.595Z,22.2
2024-05-09T05:02:21.948Z,22.2
2024-05-09T05:03:31.122Z,22.2
2024-05-09T05:04:40.279Z,22.2
2024-05-09T05:05:49.458Z,22.2
2024-05-09T05:06:58.898Z,22.3
2024-05-09T05:08:07.806Z,22.3
2024-05-09T05:09:16.977Z,22.3
2024-05-09T05:10:26.205Z,22.3
2024-05-09T05:11:35.329Z,22.3
2024-05-09T05:12:44.502Z,22.3
2024-05-09T05:13:53.679Z,22.3
2024-05-09T05:15:02.910Z,22.3
2024-05-09T05:16:11.924Z,22.3
2024-05-09T05:18:29.372Z,22.3
2024-05-09T05:19:37.660Z,22.3
2024-05-09T05:20:45.779Z,22.3
2024-05-09T05:21:54.943Z,22.3
2024-05-09T05:23:04.109Z,22.3
2024-05-09T05:24:13.278Z,22.3
2024-05-09T05:25:22.460Z,22.3
2024-05-09T05:26:31.643Z,22.3
2024-05-09T05:27:40.819Z,22.3
2024-05-09T05:28:49.995Z,22.4
2024-05-09T05:29:59.176Z,22.3
2024-05-09T05:31:07.365Z,22.3
2024-05-09T05:32:15.561Z,22.4
2024-05-09T05:33:24.840Z,22.4
2024-05-09T05:35:43.068Z,22.4
2024-05-09T05:36:52.253Z,22.4
2024-05-09T05:38:01.425Z,22.4
2024-05-09T05:39:10.598Z,22.4
2024-05-09T05:40:19.758Z,22.4
2024-05-09T05:41:28.973Z,22.4
2024-05-09T05:42:38.117Z,22.4
2024-05-09T05:43:47.287Z,22.4
2024-05-09T05:44:56.457Z,22.4
2024-05-09T05:46:05.629Z,22.4
2024-05-09T05:47:13.826Z,22.4
2024-05-09T05:48:23.002Z,22.5
2024-05-09T05:50:41.339Z,22.4
2024-05-09T05:52:58.735Z,22.5
2024-05-09T05:54:07.953Z,22.5
2024-05-09T05:55:15.105Z,22.5
2024-05-09T05:57:33.461Z,22.5
2024-05-09T05:58:42.687Z,22.5
2024-05-09T05:59:51.850Z,22.5
2024-05-09T06:01:00.971Z,22.5
2024-05-09T06:02:10.142Z,22.5
2024-05-09T06:03:19.367Z,22.5
2024-05-09T06:04:28.493Z,22.5
2024-05-09T06:05:37.767Z,22.5
2024-05-09T06:06:46.910Z,22.5
2024-05-09T06:07:56.025Z,22.5
2024-05-09T06:10:14.361Z,22.6
2024-05-09T06:11:22.538Z,22.6
2024-05-09T06:12:31.732Z,22.6
2024-05-09T06:13:40.887Z,22.6
2024-05-09T06:14:50.083Z,22.6
2024-05-09T06:15:59.295Z,22.6
2024-05-09T06:17:08.416Z,22.6
2024-05-09T06:18:17.587Z,22.6
2024-05-09T06:19:26.756Z,22.6
2024-05-09T06:20:35.922Z,22.6
2024-05-09T06:21:44.147Z,22.6
2024-05-09T06:22:52.326Z,22.6
2024-05-09T06:24:01.499Z,22.7
2024-05-09T06:25:10.677Z,22.7
2024-05-09T06:27:29.030Z,22.7
2024-05-09T06:28:38.197Z,22.7
2024-05-09T06:29:47.968Z,22.7
2024-05-09T06:30:56.536Z,22.7
2024-05-09T06:32:05.713Z,22.7
2024-05-09T06:33:15.024Z,22.7
2024-05-09T06:34:24.065Z,22.7
2024-05-09T06:35:33.247Z,22.7
2024-05-09T06:36:42.416Z,22.7
2024-05-09T06:37:50.599Z,22.7
2024-05-09T06:38:59.905Z,22.7
2024-05-09T06:40:08.949Z,22.8
2024-05-09T06:41:18.382Z,22.8
2024-05-09T06:42:27.375Z,22.8
2024-05-09T06:44:45.659Z,22.8
2024-05-09T06:45:54.859Z,22.8
2024-05-09T06:47:04.018Z,22.8
2024-05-09T06:48:13.156Z,22.8
2024-05-09T06:49:22.341Z,22.8
2024-05-09T06:50:31.564Z,22.8
2024-05-09T06:51:39.744Z,22.8
2024-05-09T06:52:47.944Z,22.8
2024-05-09T06:53:57.095Z,22.8
2024-05-09T06:55:06.348Z,22.9
2024-05-09T06:56:15.432Z,22.9
2024-05-09T06:57:24.671Z,22.9
2024-05-09T06:58:33.948Z,22.9
2024-05-09T06:59:42.946Z,22.9
2024-05-09T07:02:01.311Z,22.9
2024-05-09T07:03:10.463Z,22.9
2024-05-09T07:04:19.683Z,22.9
2024-05-09T07:05:29.890Z,22.9
2024-05-09T07:06:38.059Z,22.9
2024-05-09T07:07:46.214Z,22.9
2024-05-09T07:08:55.587Z,22.9
2024-05-09T07:10:04.581Z,22.9
2024-05-09T07:11:14.011Z,23
2024-05-09T07:12:22.895Z,22.9
2024-05-09T07:13:32.265Z,23
2024-05-09T07:14:41.225Z,23
2024-05-09T07:15:50.395Z,23
2024-05-09T07:16:59.556Z,23
2024-05-09T07:19:18.025Z,23
2024-05-09T07:20:27.086Z,23
2024-05-09T07:21:36.257Z,23
2024-05-09T07:23:53.661Z,23.1
2024-05-09T07:25:01.825Z,23.1
2024-05-09T07:26:10.028Z,23.1
2024-05-09T07:27:19.230Z,23.1
2024-05-09T07:28:28.358Z,23.1
2024-05-09T07:29:37.544Z,23.1
2024-05-09T07:30:46.759Z,23.1
2024-05-09T07:31:55.880Z,23.1
2024-05-09T07:33:05.220Z,23.1
2024-05-09T07:34:14.235Z,23.1
2024-05-09T07:37:41.744Z,23.1
2024-05-09T07:38:49.977Z,23.2
2024-05-09T07:39:58.204Z,23.2
2024-05-09T07:41:07.327Z,23.2
2024-05-09T07:42:16.506Z,23.2
2024-05-09T07:43:25.669Z,23.2
2024-05-09T07:45:44.033Z,23.2
2024-05-09T07:46:53.207Z,23.2
2024-05-09T07:49:11.540Z,23.2
2024-05-09T07:50:20.715Z,23.2
2024-05-09T07:51:29.881Z,23.3
2024-05-09T07:53:48.239Z,23.3
2024-05-09T07:54:56.436Z,23.3
2024-05-09T07:56:05.596Z,23.3
2024-05-09T07:57:14.777Z,23.3
2024-05-09T07:58:23.944Z,23.3
2024-05-09T07:59:33.121Z,23.3
2024-05-09T08:00:42.293Z,23.4
2024-05-09T08:01:51.627Z,23.4
2024-05-09T08:03:00.651Z,23.4
2024-05-09T08:04:09.816Z,23.4
2024-05-09T08:05:18.980Z,23.4
2024-05-09T08:06:28.274Z,23.4
2024-05-09T08:07:37.339Z,23.4
2024-05-09T08:11:04.861Z,23.5
2024-05-09T08:12:13.058Z,23.5
2024-05-09T08:13:22.397Z,23.5
2024-05-09T08:14:31.392Z,23.5
2024-05-09T08:15:40.563Z,23.5
2024-05-09T08:16:49.746Z,23.5
2024-05-09T08:17:59.964Z,23.5
2024-05-09T08:19:08.084Z,23.5
2024-05-09T08:20:17.262Z,23.6
2024-05-09T08:21:26.501Z,23.6
2024-05-09T08:22:35.604Z,23.6
2024-05-09T08:23:44.769Z,23.6
2024-05-09T08:24:53.943Z,23.6
2024-05-09T08:26:03.120Z,23.6
2024-05-09T08:28:20.536Z,23.7
2024-05-09T08:29:29.656Z,23.7
2024-05-09T08:30:38.835Z,23.7
2024-05-09T08:31:48.030Z,23.7
2024-05-09T08:32:57.182Z,23.7
2024-05-09T08:34:06.363Z,23.7
2024-05-09T08:35:14.728Z,23.7
2024-05-09T08:36:22.752Z,23.8
2024-05-09T08:37:31.917Z,23.8
2024-05-09T08:38:41.096Z,23.8
2024-05-09T08:40:59.562Z,23.8
2024-05-09T08:42:08.624Z,23.8
2024-05-09T08:43:18.005Z,23.9
2024-05-09T08:45:36.137Z,23.9
2024-05-09T08:46:45.311Z,23.9
2024-05-09T08:47:54.489Z,23.9
2024-05-09T08:49:02.734Z,23.9
2024-05-09T08:50:11.020Z,24
2024-05-09T08:51:20.155Z,24
2024-05-09T08:52:29.230Z,24
2024-05-09T08:53:38.402Z,24
2024-05-09T08:54:47.612Z,24
2024-05-09T08:55:56.910Z,24.1
2024-05-09T08:57:05.945Z,24.1
2024-05-09T08:58:15.074Z,24.1
2024-05-09T08:59:24.264Z,24.1
2024-05-09T09:00:32.465Z,24.1
2024-05-09T09:02:49.820Z,24.2
2024-05-09T09:03:59.060Z,24.2
2024-05-09T09:05:08.183Z,24.2
2024-05-09T09:06:17.354Z,24.2
2024-05-09T09:07:26.578Z,24.3
2024-05-09T09:08:35.822Z,24.3
2024-05-09T09:09:44.880Z,24.3
2024-05-09T09:12:03.238Z,24.4
2024-05-09T09:13:12.465Z,24.4
2024-05-09T09:14:20.576Z,24.4
2024-05-09T09:15:28.780Z,24.4
2024-05-09T09:16:37.954Z,24.4
2024-05-09T09:17:47.125Z,24.4
2024-05-09T09:18:56.312Z,24.5
2024-05-09T09:20:05.475Z,24.5
2024-05-09T09:21:14.651Z,24.5
2024-05-09T09:22:23.806Z,24.5
2024-05-09T09:23:32.992Z,24.5
2024-05-09T09:24:42.175Z,24.6
2024-05-09T09:25:50.380Z,24.6
2024-05-09T09:26:58.553Z,24.6
2024-05-09T09:28:07.725Z,24.6
2024-05-09T09:29:17.106Z,24.7
2024-05-09T09:30:26.071Z,24.7
2024-05-09T09:31:35.251Z,24.7
2024-05-09T09:32:44.417Z,24.7
2024-05-09T09:33:53.621Z,24.7
2024-05-09T09:35:02.762Z,24.8
2024-05-09T09:37:21.172Z,24.8
2024-05-09T09:38:30.398Z,24.8
2024-05-09T09:39:39.472Z,24.8
2024-05-09T09:40:48.642Z,24.9
2024-05-09T09:41:56.832Z,24.9
2024-05-09T09:43:06.024Z,24.9
2024-05-09T09:44:15.183Z,25
2024-05-09T09:45:24.358Z,25
2024-05-09T09:46:33.554Z,25
2024-05-09T09:47:42.693Z,25.1
2024-05-09T09:48:51.882Z,25.2
2024-05-09T09:50:00.079Z,25.4
2024-05-09T09:51:08.283Z,25.5
2024-05-09T09:52:17.431Z,25.7
2024-05-09T09:54:35.787Z,26
2024-05-09T09:55:44.949Z,26
2024-05-09T09:56:54.227Z,26
2024-05-09T09:58:03.311Z,26
2024-05-09T09:59:12.476Z,26
2024-05-09T10:00:21.666Z,26
2024-05-09T10:01:30.838Z,25.9
2024-05-09T10:02:40.005Z,25.8
2024-05-09T10:03:49.198Z,26
2024-05-09T10:04:58.353Z,26.2
2024-05-09T10:06:06.533Z,26.4
2024-05-09T10:07:15.737Z,26.6
2024-05-09T10:08:26.140Z,26.8
2024-05-09T10:09:34.060Z,26.7
2024-05-09T10:11:52.414Z,26.3
2024-05-09T10:13:00.612Z,26.6
2024-05-09T10:14:08.845Z,27
2024-05-09T10:15:17.974Z,26.8
2024-05-09T10:16:27.147Z,27.1
2024-05-09T10:17:36.327Z,27.5
2024-05-09T10:18:45.500Z,27.8
2024-05-09T10:19:54.756Z,28.1
2024-05-09T10:21:03.865Z,28.3
2024-05-09T10:22:13.008Z,28.3
2024-05-09T10:23:22.191Z,28.6
2024-05-09T10:24:30.532Z,28.7
2024-05-09T10:25:38.566Z,28.5
2024-05-09T10:26:48.026Z,28.1
2024-05-09T10:29:06.098Z,27.8
2024-05-09T10:30:15.310Z,27.8
2024-05-09T10:31:24.442Z,27.9
2024-05-09T10:32:33.704Z,28.2
2024-05-09T10:33:42.897Z,28.6
2024-05-09T10:34:52.155Z,28.9
2024-05-09T10:36:01.152Z,29.2
2024-05-09T10:37:10.576Z,29.4
2024-05-09T10:38:19.522Z,29.6
2024-05-09T10:39:28.654Z,29.7
2024-05-09T10:40:36.930Z,29.9
2024-05-09T10:41:46.034Z,30.1
2024-05-09T10:42:55.240Z,30.2
2024-05-09T10:44:04.368Z,30.3
2024-05-09T10:46:22.772Z,30.5
2024-05-09T10:47:30.919Z,30.2
2024-05-09T10:48:39.095Z,30.2
2024-05-09T10:49:48.292Z,30.5
2024-05-09T10:50:57.455Z,30.6
2024-05-09T10:52:06.616Z,30.7
2024-05-09T10:53:15.793Z,30.6
2024-05-09T10:54:24.976Z,30.7
2024-05-09T10:55:34.147Z,30.8
2024-05-09T10:56:43.329Z,30.9
2024-05-09T10:57:52.513Z,31
2024-05-09T10:59:00.723Z,31.1
2024-05-09T11:00:08.891Z,31.1
2024-05-09T11:01:18.103Z,31
2024-05-09T11:03:36.416Z,30.3
2024-05-09T11:04:45.621Z,29.9
2024-05-09T11:05:54.769Z,29.5
2024-05-09T11:07:03.938Z,29.2
2024-05-09T11:08:13.104Z,29
2024-05-09T11:09:22.280Z,28.9
2024-05-09T11:10:31.460Z,28.7
2024-05-09T11:11:40.637Z,28.7
2024-05-09T11:12:49.863Z,29.3
2024-05-09T11:13:58.972Z,29.1
2024-05-09T11:15:07.189Z,28.8
2024-05-09T11:16:16.342Z,28.6
2024-05-09T11:17:25.533Z,28.5
2024-05-09T11:18:34.712Z,28.4
2024-05-09T11:20:53.032Z,28.2
2024-05-09T11:22:02.093Z,28.3
2024-05-09T11:23:09.436Z,28.8
2024-05-09T11:24:18.627Z,29.3
2024-05-09T11:25:27.803Z,29.6
2024-05-09T11:26:36.948Z,29.8
2024-05-09T11:27:46.122Z,29.9
2024-05-09T11:28:55.545Z,30.1
2024-05-09T11:30:03.506Z,30.1
2024-05-09T11:31:12.774Z,30
2024-05-09T11:32:21.838Z,29.6
2024-05-09T11:33:30.029Z,29.3
2024-05-09T11:34:38.235Z,29.1
2024-05-09T11:35:47.477Z,28.9
2024-05-09T11:38:05.760Z,28.7
2024-05-09T11:39:15.004Z,28.6
2024-05-09T11:40:24.098Z,28.5
2024-05-09T11:41:33.405Z,28.4
2024-05-09T11:42:42.450Z,28.3
2024-05-09T11:43:51.659Z,28.3
2024-05-09T11:45:00.795Z,28.3
2024-05-09T11:46:10.039Z,28.2
2024-05-09T11:47:19.143Z,28.1
2024-05-09T11:48:28.315Z,28.1
2024-05-09T11:49:36.514Z,28.1
2024-05-09T11:50:45.687Z,28.3
2024-05-09T11:51:55.099Z,28.5
2024-05-09T11:53:04.082Z,28.6
2024-05-09T11:54:13.216Z,28.7
2024-05-09T11:55:22.420Z,28.8
2024-05-09T11:56:31.574Z,28.9
2024-05-09T11:57:40.728Z,29
2024-05-09T11:58:50.016Z,29.1
2024-05-09T11:59:59.171Z,29.3
2024-05-09T12:01:08.321Z,29.4
2024-05-09T12:02:17.423Z,29.6
2024-05-09T12:03:26.604Z,29.8
2024-05-09T12:04:34.811Z,30
2024-05-09T12:05:43.009Z,30.2
2024-05-09T12:06:52.165Z,30.4
2024-05-09T12:08:01.351Z,30.6
2024-05-09T12:09:10.499Z,30.8
2024-05-09T12:10:19.675Z,31.1
2024-05-09T12:12:38.026Z,31.5
2024-05-09T12:14:56.371Z,31.2
2024-05-09T12:16:05.670Z,30.8
2024-05-09T12:17:14.741Z,30.5
2024-05-09T12:18:23.002Z,30.5
2024-05-09T12:19:31.120Z,31.1
2024-05-09T12:20:40.338Z,31.5
2024-05-09T12:21:49.520Z,31.9
2024-05-09T12:22:58.709Z,32.2
2024-05-09T12:24:07.801Z,32.4
2024-05-09T12:25:16.990Z,32.6
2024-05-09T12:26:26.194Z,32.8
2024-05-09T12:27:35.336Z,33
2024-05-09T12:29:53.684Z,33.3
2024-05-09T12:31:02.864Z,33.4
2024-05-09T12:32:12.043Z,33.5
2024-05-09T12:33:21.220Z,33.7
2024-05-09T12:34:29.405Z,33.8
2024-05-09T12:35:38.951Z,33.9
2024-05-09T12:36:47.870Z,34
2024-05-09T12:37:56.918Z,34.1
2024-05-09T12:39:06.104Z,34.2
2024-05-09T12:40:15.277Z,34.4
2024-05-09T12:41:24.497Z,34.4
2024-05-09T12:42:32.637Z,34.5
2024-05-09T12:43:40.872Z,34.4
2024-05-09T12:44:50.027Z,33.6
2024-05-09T12:47:08.357Z,33.3
2024-05-09T12:48:17.870Z,33.7
2024-05-09T12:49:26.697Z,34
2024-05-09T12:50:36.071Z,34.2
2024-05-09T12:51:45.062Z,34.4
2024-05-09T12:52:54.218Z,34.5
2024-05-09T12:54:03.549Z,34.2
2024-05-09T12:55:12.710Z,33.4
2024-05-09T12:56:21.742Z,32.9
2024-05-09T12:57:31.095Z,32.9
2024-05-09T12:58:39.201Z,33.4
2024-05-09T12:59:48.498Z,33.8
2024-05-09T13:00:57.465Z,34.1
2024-05-09T13:03:16.023Z,34.5
2024-05-09T13:04:24.174Z,34.6
2024-05-09T13:05:32.202Z,34.7
2024-05-09T13:06:41.379Z,34.8
2024-05-09T13:07:50.561Z,34.9
2024-05-09T13:08:59.723Z,35
2024-05-09T13:10:08.905Z,35
2024-05-09T13:11:18.099Z,35.1
2024-05-09T13:12:27.231Z,35.1
2024-05-09T13:13:36.436Z,35.2
2024-05-09T13:14:45.691Z,35.2
2024-05-09T13:15:53.917Z,35.2
2024-05-09T13:17:01.985Z,35.3
2024-05-09T13:18:11.229Z,35.3
2024-05-09T13:19:20.343Z,35.3
2024-05-09T13:21:38.680Z,35.4
2024-05-09T13:22:47.855Z,35.4
2024-05-09T13:23:57.042Z,35.4
2024-05-09T13:25:06.210Z,35.3
2024-05-09T13:26:15.384Z,35.3
2024-05-09T13:27:24.565Z,35.3
2024-05-09T13:28:33.731Z,35.1
2024-05-09T13:29:42.903Z,35.1
2024-05-09T13:30:52.094Z,35.1
2024-05-09T13:32:00.286Z,35.2
2024-05-09T13:33:09.450Z,35.3
2024-05-09T13:34:18.622Z,35.3
2024-05-09T13:35:27.790Z,35.4
2024-05-09T13:36:36.951Z,35.4
2024-05-09T13:38:55.312Z,35.5
2024-05-09T13:40:04.496Z,35.5
2024-05-09T13:41:13.679Z,35.6
2024-05-09T13:42:22.899Z,35.6
2024-05-09T13:43:32.013Z,35.6
2024-05-09T13:44:41.239Z,35.6
2024-05-09T13:45:50.364Z,35.6
2024-05-09T13:46:58.555Z,35.7
2024-05-09T13:48:09.285Z,35.7
2024-05-09T13:49:17.117Z,35.7
2024-05-09T13:50:26.067Z,35.8
2024-05-09T13:51:35.361Z,35.6
2024-05-09T13:52:44.430Z,35.3
2024-05-09T13:53:53.602Z,35
2024-05-09T13:56:11.940Z,35.1
2024-05-09T13:57:21.159Z,35.1
2024-05-09T13:58:30.298Z,35.1
2024-05-09T13:59:39.457Z,35.2
2024-05-09T14:00:48.809Z,35.3
2024-05-09T14:01:56.838Z,35.4
2024-05-09T14:03:05.998Z,35.4
2024-05-09T14:04:15.181Z,35.3
2024-05-09T14:05:24.353Z,35.3
2024-05-09T14:07:42.805Z,35.5
2024-05-09T14:08:51.881Z,35.6
2024-05-09T14:11:10.229Z,35.7
2024-05-09T14:13:27.597Z,35.8
2024-05-09T14:14:35.804Z,35.8
2024-05-09T14:15:44.309Z,35.8
2024-05-09T14:16:53.212Z,35.8
2024-05-09T14:18:02.396Z,35.8
2024-05-09T14:19:11.515Z,35.7
2024-05-09T14:20:20.686Z,35.6
2024-05-09T14:21:29.873Z,35.3
2024-05-09T14:22:39.046Z,35.1
2024-05-09T14:23:48.242Z,35.1
2024-05-09T14:24:57.388Z,35.1
2024-05-09T14:26:05.635Z,35.2
2024-05-09T14:27:13.774Z,35.3
2024-05-09T14:28:22.998Z,35.2
2024-05-09T14:29:32.124Z,35
2024-05-09T14:30:41.307Z,34.9
2024-05-09T14:31:50.497Z,34.7
2024-05-09T14:32:59.743Z,34.5
2024-05-09T14:34:08.920Z,34.3
2024-05-09T14:35:18.007Z,34.1
2024-05-09T14:36:27.389Z,34.1
2024-05-09T14:37:36.365Z,34
2024-05-09T14:38:45.707Z,34.1
2024-05-09T14:39:54.704Z,34.1
2024-05-09T14:41:03.904Z,34.1
2024-05-09T14:42:12.144Z,34
2024-05-09T14:43:21.364Z,34
2024-05-09T14:44:30.407Z,33.8
2024-05-09T14:47:57.946Z,33.6
2024-05-09T14:49:06.129Z,33.6
2024-05-09T14:50:14.367Z,33.6
2024-05-09T14:51:23.513Z,33.6
2024-05-09T14:52:32.695Z,33.5
2024-05-09T14:53:41.926Z,33.4
2024-05-09T14:54:51.029Z,33.2
2024-05-09T14:56:00.509Z,33.2
2024-05-09T14:57:09.393Z,33.1
2024-05-09T14:58:18.561Z,33.1
2024-05-09T14:59:27.710Z,33
2024-05-09T15:00:35.940Z,32.9
2024-05-09T15:02:53.283Z,32.9
2024-05-09T15:05:11.852Z,32.9
2024-05-09T15:06:20.919Z,32.8
2024-05-09T15:07:29.976Z,32.7
2024-05-09T15:08:39.158Z,32.7
2024-05-09T15:09:48.537Z,32.6
2024-05-09T15:10:57.512Z,32.4
2024-05-09T15:12:06.663Z,32.4
2024-05-09T15:13:15.859Z,32.3
2024-05-09T15:14:24.044Z,32.2
2024-05-09T15:15:32.247Z,32.1
2024-05-09T15:16:41.413Z,32
2024-05-09T15:17:50.587Z,31.9
2024-05-09T15:18:59.956Z,31.9
2024-05-09T15:20:08.941Z,31.8
2024-05-09T15:22:26.296Z,31.6
2024-05-09T15:23:34.531Z,31.5
2024-05-09T15:24:43.689Z,31.4
2024-05-09T15:25:52.894Z,31.3
2024-05-09T15:27:02.031Z,31.2
2024-05-09T15:28:11.235Z,31.1
2024-05-09T15:29:20.386Z,31
2024-05-09T15:30:29.550Z,31
2024-05-09T15:31:38.845Z,30.9
2024-05-09T15:32:47.915Z,30.9
2024-05-09T15:33:57.165Z,30.8
2024-05-09T15:35:06.241Z,30.7
2024-05-09T15:36:15.406Z,30.7
2024-05-09T15:37:24.611Z,30.6
2024-05-09T15:39:41.970Z,30.5
2024-05-09T15:40:50.139Z,30.5
2024-05-09T15:41:59.337Z,30.4
2024-05-09T15:43:08.500Z,30.4
2024-05-09T15:44:17.743Z,30.3
2024-05-09T15:45:26.898Z,30.3
2024-05-09T15:46:35.149Z,30.2
2024-05-09T15:47:43.229Z,30.1
2024-05-09T15:48:52.512Z,30.1
2024-05-09T15:50:01.589Z,30
2024-05-09T15:51:11.006Z,30
2024-05-09T15:52:19.933Z,29.9
2024-05-09T15:53:29.109Z,29.8
2024-05-09T15:54:38.277Z,29.8
2024-05-09T15:55:47.573Z,29.7
2024-05-09T15:56:56.731Z,29.7
2024-05-09T15:58:05.835Z,29.6
2024-05-09T15:59:15.074Z,29.5
2024-05-09T16:00:24.176Z,29.5
2024-05-09T16:01:33.328Z,29.4
2024-05-09T16:02:41.535Z,29.4
2024-05-09T16:03:50.685Z,29.4
2024-05-09T16:04:59.963Z,29.3
2024-05-09T16:06:09.075Z,29.3
2024-05-09T16:07:18.211Z,29.2
2024-05-09T16:08:27.390Z,29.2
2024-05-09T16:09:36.561Z,29.2
2024-05-09T16:10:45.726Z,29.2
2024-05-09T16:11:54.935Z,29.1
2024-05-09T16:14:13.253Z,29
2024-05-09T16:15:22.425Z,29
2024-05-09T16:16:31.668Z,29
2024-05-09T16:17:39.798Z,28.9
2024-05-09T16:18:49.015Z,28.9
2024-05-09T16:19:58.150Z,28.9
2024-05-09T16:21:07.308Z,28.8
2024-05-09T16:22:16.563Z,28.8
2024-05-09T16:23:25.844Z,28.8
2024-05-09T16:25:44.069Z,28.7
2024-05-09T16:26:53.185Z,28.7
2024-05-09T16:28:02.400Z,28.7
2024-05-09T16:29:11.589Z,28.7
2024-05-09T16:31:30.073Z,28.6
2024-05-09T16:32:41.461Z,28.6
2024-05-09T16:33:47.261Z,28.6
2024-05-09T16:34:55.435Z,28.6
2024-05-09T16:36:04.645Z,28.5
2024-05-09T16:37:13.774Z,28.5
2024-05-09T16:38:23.129Z,28.5
2024-05-09T16:39:32.128Z,28.5
2024-05-09T16:40:41.577Z,28.4
2024-05-09T16:41:50.528Z,28.4
2024-05-09T16:42:59.673Z,28.4
2024-05-09T16:44:07.901Z,28.4
2024-05-09T16:45:16.059Z,28.4
2024-05-09T16:46:25.225Z,28.3
2024-05-09T16:47:34.391Z,28.3